createdAt,value
2019-05-13T00:00:14.948Z,61.68
2019-05-13T00:02:43.938Z,62.13
2019-05-13T00:05:14.746Z,62.60
2019-05-13T00:07:43.891Z,62.91
2019-05-13T00:10:14.650Z,62.82
2019-05-13T00:12:44.732Z,63.15
2019-05-13T00:15:14.212Z,63.28
2019-05-13T00:17:44.656Z,63.49
2019-05-13T00:20:14.171Z,64.15
2019-05-13T00:22:44.810Z,64.36
2019-05-13T00:25:14.526Z,64.91
2019-05-13T00:27:44.529Z,64.73
2019-05-13T00:30:14.511Z,64.79
2019-05-13T00:32:44.554Z,65.30
2019-05-13T00:35:14.151Z,65.73
2019-05-13T00:37:44.378Z,65.84
2019-05-13T00:40:14.437Z,66.63
2019-05-13T00:42:44.131Z,67.27
2019-05-13T00:45:14.544Z,66.96
2019-05-13T00:47:43.760Z,66.38
2019-05-13T00:50:14.237Z,66.07
2019-05-13T00:52:44.835Z,65.78
2019-05-13T00:55:14.777Z,66.13
2019-05-13T00:57:43.964Z,67.13
2019-05-13T01:00:14.114Z,68.03
2019-05-13T01:02:44.638Z,68.06
2019-05-13T01:05:14.649Z,68.45
2019-05-13T01:07:44.440Z,68.95
2019-05-13T01:10:13.646Z,69.08
2019-05-13T01:12:44.023Z,68.71
2019-05-13T01:15:13.551Z,67.98
2019-05-13T01:17:44.733Z,67.41
2019-05-13T01:20:14.455Z,67.71
2019-05-13T01:22:44.156Z,67.54
2019-05-13T01:25:14.431Z,67.42
2019-05-13T01:27:44.296Z,67.49
2019-05-13T01:30:13.875Z,67.86
2019-05-13T01:32:44.894Z,67.90
2019-05-13T01:35:14.875Z,67.97
2019-05-13T01:37:46.053Z,67.75
2019-05-13T01:40:14.587Z,67.80
2019-05-13T01:42:44.464Z,67.99
2019-05-13T01:45:13.998Z,67.93
2019-05-13T01:47:44.066Z,68.24
2019-05-13T01:50:14.286Z,68.63
2019-05-13T01:52:44.514Z,68.78
2019-05-13T01:55:14.603Z,68.68
2019-05-13T01:57:44.384Z,68.72
2019-05-13T02:00:14.202Z,68.72
2019-05-13T02:02:44.597Z,68.60
2019-05-13T02:05:14.195Z,69.30
2019-05-13T02:07:54.493Z,70.24
2019-05-13T02:10:16.429Z,70.53
2019-05-13T02:12:45.000Z,70.63
2019-05-13T02:15:14.838Z,70.63
2019-05-13T02:17:44.822Z,70.53
2019-05-13T02:20:14.939Z,70.53
2019-05-13T02:22:44.526Z,70.87
2019-05-13T02:25:13.870Z,71.15
2019-05-13T02:27:43.985Z,71.50
2019-05-13T02:30:16.249Z,71.95
2019-05-13T02:32:43.367Z,72.16
2019-05-13T02:35:14.093Z,72.77
2019-05-13T02:37:43.423Z,72.75
2019-05-13T02:40:13.481Z,72.97
2019-05-13T02:42:43.667Z,72.67
2019-05-13T02:45:12.784Z,72.64
2019-05-13T02:47:44.357Z,72.80
2019-05-13T02:50:12.640Z,72.82
2019-05-13T02:52:44.446Z,72.04
2019-05-13T02:55:12.854Z,71.37
2019-05-13T02:57:43.662Z,71.33
2019-05-13T03:00:13.005Z,71.46
2019-05-13T03:02:43.806Z,71.65
2019-05-13T03:05:13.735Z,72.41
2019-05-13T03:07:43.257Z,72.37
2019-05-13T03:10:13.939Z,72.26
2019-05-13T03:12:43.003Z,72.58
2019-05-13T03:15:13.302Z,72.58
2019-05-13T03:17:52.921Z,72.76
2019-05-13T03:20:22.875Z,72.96
2019-05-13T03:22:52.707Z,72.53
2019-05-13T03:25:22.613Z,72.53
2019-05-13T03:27:54.120Z,72.96
2019-05-13T03:30:25.117Z,73.12
2019-05-13T03:32:59.844Z,73.11
2019-05-13T03:35:26.746Z,72.87
2019-05-13T03:37:53.568Z,73.24
2019-05-13T03:40:23.092Z,73.75
2019-05-13T03:42:53.702Z,73.85
2019-05-13T03:45:24.844Z,74.04
2019-05-13T03:47:55.808Z,74.69
2019-05-13T03:50:24.441Z,75.23
2019-05-13T03:52:52.951Z,75.38
2019-05-13T03:55:23.358Z,75.74
2019-05-13T03:57:53.343Z,75.86
2019-05-13T04:00:23.472Z,75.23
2019-05-13T04:02:53.117Z,75.22
2019-05-13T04:05:23.408Z,75.03
2019-05-13T04:07:52.712Z,75.19
2019-05-13T04:10:22.920Z,75.68
2019-05-13T04:12:52.970Z,75.34
2019-05-13T04:15:23.791Z,75.61
2019-05-13T04:17:53.286Z,76.04
2019-05-13T04:20:23.368Z,75.84
2019-05-13T04:22:53.105Z,75.90
2019-05-13T04:25:23.321Z,76.25
2019-05-13T04:27:53.358Z,76.17
2019-05-13T04:30:22.691Z,75.89
2019-05-13T04:32:53.403Z,75.77
2019-05-13T04:35:23.472Z,75.90
2019-05-13T04:37:53.059Z,75.98
2019-05-13T04:40:23.019Z,76.01
2019-05-13T04:42:53.345Z,75.91
2019-05-13T04:45:23.928Z,75.54
2019-05-13T04:47:53.133Z,75.65
2019-05-13T04:50:22.702Z,75.57
2019-05-13T04:52:53.009Z,75.56
2019-05-13T04:55:22.884Z,75.72
2019-05-13T04:57:53.176Z,75.40
2019-05-13T05:00:43.205Z,75.29
2019-05-13T05:03:44.762Z,74.37
2019-05-13T05:06:14.268Z,73.60
2019-05-13T05:09:05.178Z,73.50
2019-05-13T05:11:42.399Z,73.76
2019-05-13T05:14:18.422Z,73.38
2019-05-13T05:17:15.590Z,73.63
2019-05-13T05:20:07.672Z,73.25
2019-05-13T05:23:11.298Z,72.79
2019-05-13T05:25:48.309Z,73.46
2019-05-13T05:28:36.613Z,72.67
2019-05-13T05:31:16.985Z,72.73
2019-05-13T05:34:05.708Z,73.00
2019-05-13T05:36:36.505Z,73.12
2019-05-13T05:39:22.415Z,73.13
2019-05-13T05:41:53.288Z,72.80
2019-05-13T05:44:25.325Z,72.94
2019-05-13T05:46:56.218Z,72.79
2019-05-13T05:49:26.696Z,72.48
2019-05-13T05:52:06.980Z,72.51
2019-05-13T05:54:38.233Z,72.81
2019-05-13T05:57:09.139Z,73.15
2019-05-13T05:59:38.493Z,72.77
2019-05-13T06:02:08.089Z,72.55
2019-05-13T06:04:36.779Z,72.89
2019-05-13T06:07:05.716Z,72.95
2019-05-13T06:09:34.234Z,72.58
2019-05-13T06:12:02.892Z,72.32
2019-05-13T06:14:32.750Z,73.20
2019-05-13T06:17:02.675Z,72.79
2019-05-13T06:19:32.234Z,72.23
2019-05-13T06:22:02.372Z,71.89
2019-05-13T06:24:31.487Z,71.43
2019-05-13T06:27:01.499Z,71.37
2019-05-13T06:29:31.714Z,71.91
2019-05-13T06:32:17.087Z,71.47
2019-05-13T06:34:32.667Z,71.98
2019-05-13T06:37:01.959Z,72.30
2019-05-13T06:39:31.705Z,72.22
2019-05-13T06:42:02.866Z,70.86
2019-05-13T06:44:31.675Z,71.22
2019-05-13T06:47:02.404Z,71.44
2019-05-13T06:49:32.229Z,71.14
2019-05-13T06:52:01.665Z,71.23
2019-05-13T06:54:32.944Z,70.58
2019-05-13T06:57:04.389Z,70.35
2019-05-13T06:59:31.791Z,70.67
2019-05-13T07:02:02.231Z,70.88
2019-05-13T07:04:32.615Z,70.83
2019-05-13T07:07:12.301Z,70.02
2019-05-13T07:09:32.504Z,71.26
2019-05-13T07:12:02.974Z,72.17
2019-05-13T07:14:32.526Z,71.33
2019-05-13T07:17:02.228Z,70.85
2019-05-13T07:19:32.378Z,71.58
2019-05-13T07:22:02.844Z,71.60
2019-05-13T07:24:32.437Z,70.50
2019-05-13T07:27:02.095Z,69.67
2019-05-13T07:29:32.598Z,70.16
2019-05-13T07:32:01.839Z,70.10
2019-05-13T07:34:33.702Z,70.27
2019-05-13T07:37:01.981Z,71.13
2019-05-13T07:39:32.686Z,70.77
2019-05-13T07:42:05.394Z,69.74
2019-05-13T07:44:32.586Z,68.46
2019-05-13T07:47:03.403Z,66.71
2019-05-13T07:49:31.750Z,68.16
2019-05-13T07:52:01.569Z,68.57
2019-05-13T07:54:33.087Z,68.15
2019-05-13T07:57:01.845Z,67.21
2019-05-13T07:59:31.849Z,63.28
2019-05-13T08:02:02.103Z,64.67
2019-05-13T08:04:33.562Z,64.87
2019-05-13T08:07:02.242Z,63.54
2019-05-13T08:09:31.919Z,64.08
2019-05-13T08:12:10.146Z,63.21
2019-05-13T08:14:32.767Z,62.79
2019-05-13T08:17:02.547Z,63.03
2019-05-13T08:19:32.535Z,63.23
2019-05-13T08:22:02.297Z,62.93
2019-05-13T08:24:31.618Z,59.56
2019-05-13T08:27:01.980Z,60.10
2019-05-13T08:29:32.863Z,59.11
2019-05-13T08:32:02.865Z,61.38
2019-05-13T08:34:32.901Z,58.27
2019-05-13T08:37:02.877Z,59.13
2019-05-13T08:39:35.905Z,59.91
2019-05-13T08:42:12.947Z,56.90
2019-05-13T08:44:32.630Z,55.96
2019-05-13T08:47:03.209Z,56.09
2019-05-13T08:49:32.477Z,57.10
2019-05-13T08:52:02.083Z,58.77
2019-05-13T08:54:32.916Z,57.23
2019-05-13T08:57:02.984Z,55.16
2019-05-13T08:59:31.942Z,55.96
2019-05-13T09:02:03.170Z,55.22
2019-05-13T09:04:31.576Z,55.33
2019-05-13T09:07:02.166Z,54.04
2019-05-13T09:09:31.723Z,54.38
2019-05-13T09:12:02.397Z,55.94
2019-05-13T09:14:32.383Z,52.90
2019-05-13T09:17:01.983Z,53.40
2019-05-13T09:19:32.341Z,51.46
2019-05-13T09:22:03.130Z,51.44
2019-05-13T09:24:37.190Z,50.02
2019-05-13T09:27:02.140Z,52.45
2019-05-13T09:29:32.306Z,53.03
2019-05-13T09:32:03.846Z,52.37
2019-05-13T09:34:32.850Z,50.60
2019-05-13T09:37:02.883Z,49.46
2019-05-13T09:39:32.461Z,49.57
2019-05-13T09:42:02.580Z,50.13
2019-05-13T09:44:32.801Z,50.85
2019-05-13T09:47:02.561Z,49.74
2019-05-13T09:49:32.998Z,51.05
2019-05-13T09:52:02.053Z,50.57
2019-05-13T09:54:32.597Z,50.78
2019-05-13T09:57:01.818Z,50.21
2019-05-13T09:59:31.833Z,49.12
2019-05-13T10:02:02.956Z,48.14
2019-05-13T10:04:31.829Z,48.87
2019-05-13T10:07:02.249Z,47.40
2019-05-13T10:09:32.742Z,47.90
2019-05-13T10:12:03.306Z,45.58
2019-05-13T10:14:32.727Z,47.09
2019-05-13T10:17:06.168Z,47.99
2019-05-13T10:19:32.482Z,49.28
2019-05-13T10:22:01.417Z,48.19
2019-05-13T10:24:32.355Z,47.02
2019-05-13T10:27:02.350Z,47.03
2019-05-13T10:29:32.129Z,48.75
2019-05-13T10:32:02.625Z,47.76
2019-05-13T10:34:32.049Z,45.71
2019-05-13T10:37:02.062Z,46.21
2019-05-13T10:39:31.422Z,45.99
2019-05-13T10:42:03.052Z,43.82
2019-05-13T10:44:30.236Z,46.37
2019-05-13T10:46:58.681Z,43.69
2019-05-13T10:49:27.164Z,42.44
2019-05-13T10:51:55.614Z,44.86
2019-05-13T10:54:24.103Z,40.90
2019-05-13T10:56:56.117Z,36.81
2019-05-13T10:59:23.215Z,41.56
2019-05-13T11:05:32.887Z,40.29
2019-05-13T11:08:02.017Z,38.15
2019-05-13T11:10:32.789Z,36.46
2019-05-13T11:13:01.654Z,36.53
2019-05-13T11:15:32.730Z,36.08
2019-05-13T11:18:03.074Z,36.68
2019-05-13T11:20:32.364Z,37.24
2019-05-13T11:23:02.342Z,37.50
2019-05-13T11:25:32.425Z,40.51
2019-05-13T11:28:01.636Z,36.30
2019-05-13T11:30:31.979Z,33.92
2019-05-13T11:33:02.255Z,37.46
2019-05-13T11:35:31.933Z,37.24
2019-05-13T11:38:01.650Z,38.32
2019-05-13T11:40:31.839Z,40.72
2019-05-13T11:43:01.718Z,37.88
2019-05-13T11:45:31.608Z,38.46
2019-05-13T11:48:02.332Z,38.34
2019-05-13T11:50:30.388Z,37.06
2019-05-13T11:52:58.874Z,37.89
2019-05-13T11:55:27.400Z,38.73
2019-05-13T11:57:56.041Z,37.08
2019-05-13T12:00:47.260Z,38.72
2019-05-13T12:03:16.242Z,40.49
2019-05-13T12:05:45.338Z,35.36
2019-05-13T12:08:13.986Z,38.23
2019-05-13T12:10:43.959Z,37.14
2019-05-13T12:13:12.769Z,36.69
2019-05-13T12:15:48.725Z,37.19
2019-05-13T12:18:12.628Z,36.92
2019-05-13T12:20:42.745Z,38.08
2019-05-13T12:23:13.025Z,40.41
2019-05-13T12:25:43.758Z,39.30
2019-05-13T12:28:11.855Z,40.18
2019-05-13T12:30:41.773Z,37.88
2019-05-13T12:33:13.504Z,38.77
2019-05-13T12:35:40.645Z,39.85
2019-05-13T12:38:12.867Z,36.13
2019-05-13T12:40:42.615Z,35.46
2019-05-13T12:43:12.641Z,37.07
2019-05-13T12:45:43.230Z,38.31
2019-05-13T12:48:13.668Z,37.17
2019-05-13T12:50:43.186Z,37.45
2019-05-13T12:53:12.784Z,37.94
2019-05-13T12:55:40.872Z,36.93
2019-05-13T12:58:09.667Z,37.99
2019-05-13T13:00:42.818Z,38.23
2019-05-13T13:03:13.063Z,36.89
2019-05-13T13:05:43.125Z,36.23
2019-05-13T13:08:24.025Z,36.57
2019-05-13T13:10:42.347Z,37.93
2019-05-13T13:13:11.009Z,39.22
2019-05-13T13:15:43.471Z,37.65
2019-05-13T13:18:13.939Z,41.37
2019-05-13T13:20:42.260Z,39.45
2019-05-13T13:23:12.550Z,37.65
2019-05-13T13:25:44.198Z,39.07
2019-05-13T13:28:15.032Z,38.77
2019-05-13T13:30:43.874Z,38.95
2019-05-13T13:33:15.126Z,37.50
2019-05-13T13:35:45.188Z,35.79
2019-05-13T13:38:11.467Z,38.06
2019-05-13T13:40:40.790Z,34.96
2019-05-13T13:43:12.314Z,36.49
2019-05-13T13:48:13.394Z,35.79
2019-05-13T13:50:44.309Z,36.90
2019-05-13T13:53:14.041Z,37.01
2019-05-13T13:55:44.249Z,35.20
2019-05-13T13:58:14.336Z,35.14
2019-05-13T14:00:55.957Z,35.87
2019-05-13T14:03:12.571Z,35.66
2019-05-13T14:05:42.883Z,35.87
2019-05-13T14:08:12.504Z,35.48
2019-05-13T14:10:42.041Z,35.91
2019-05-13T14:13:12.505Z,35.51
2019-05-13T14:15:41.792Z,36.56
2019-05-13T14:18:11.474Z,34.89
2019-05-13T14:20:42.699Z,34.13
2019-05-13T14:23:12.621Z,36.04
2019-05-13T14:25:42.014Z,34.77
2019-05-13T14:28:10.684Z,32.81
2019-05-13T14:30:39.168Z,34.98
2019-05-13T14:33:07.618Z,32.43
2019-05-13T14:35:36.165Z,31.75
2019-05-13T14:38:04.695Z,32.55
2019-05-13T14:40:33.175Z,33.40
2019-05-13T14:43:03.667Z,32.42
2019-05-13T14:45:32.005Z,32.25
2019-05-13T14:48:01.674Z,33.14
2019-05-13T14:50:31.919Z,33.87
2019-05-13T14:53:01.556Z,32.90
2019-05-13T15:10:02.449Z,32.00
2019-05-13T15:12:32.281Z,30.63
2019-05-13T15:15:01.759Z,29.97
2019-05-13T15:17:32.428Z,31.15
2019-05-13T15:20:01.850Z,31.13
2019-05-13T15:22:31.959Z,30.99
2019-05-13T15:25:02.773Z,32.72
2019-05-13T15:27:31.668Z,32.24
2019-05-13T15:30:14.394Z,32.83
2019-05-13T15:32:32.583Z,31.85
2019-05-13T15:35:02.248Z,32.95
2019-05-13T15:37:32.120Z,31.26
2019-05-13T15:40:02.315Z,30.61
2019-05-13T15:42:31.874Z,31.33
2019-05-13T15:45:01.818Z,31.54
2019-05-13T15:47:31.135Z,31.44
2019-05-13T15:50:02.150Z,32.39
2019-05-13T15:52:31.690Z,31.92
2019-05-13T15:55:01.404Z,30.71
2019-05-13T15:57:31.870Z,30.44
2019-05-13T16:00:01.949Z,33.04
2019-05-13T16:02:31.394Z,31.92
2019-05-13T16:05:02.245Z,31.96
2019-05-13T16:07:30.393Z,30.40
2019-05-13T16:09:59.116Z,30.20
2019-05-13T16:12:31.866Z,30.73
2019-05-13T16:15:01.735Z,30.90
2019-05-13T16:17:38.783Z,30.81
2019-05-13T16:20:01.956Z,32.93
2019-05-13T16:22:31.553Z,32.07
2019-05-13T16:25:01.515Z,31.79
2019-05-13T16:27:31.149Z,33.49
2019-05-13T16:30:02.257Z,33.81
2019-05-13T16:32:31.885Z,34.74
2019-05-13T16:35:02.697Z,33.11
2019-05-13T16:37:31.454Z,33.87
2019-05-13T16:40:00.203Z,34.11
2019-05-13T16:42:28.700Z,35.07
2019-05-13T16:44:57.267Z,36.52
2019-05-13T16:47:25.755Z,38.00
2019-05-13T16:49:54.333Z,38.98
2019-05-13T16:52:23.156Z,39.18
2019-05-13T16:54:53.245Z,39.04
2019-05-13T16:57:22.357Z,39.14
2019-05-13T16:59:51.713Z,39.63
2019-05-13T17:02:20.641Z,38.42
2019-05-13T17:04:49.210Z,39.52
2019-05-13T17:07:17.957Z,39.08
2019-05-13T17:09:46.463Z,39.27
2019-05-13T17:12:15.876Z,40.21
2019-05-13T17:14:44.876Z,39.53
2019-05-13T17:17:13.628Z,39.00
2019-05-13T17:19:42.439Z,40.16
2019-05-13T17:22:10.977Z,40.58
2019-05-13T17:24:42.472Z,39.69
2019-05-13T17:27:11.985Z,38.84
2019-05-13T17:29:40.144Z,38.87
2019-05-13T17:32:08.757Z,40.03
2019-05-13T17:34:37.547Z,40.55
2019-05-13T17:37:06.120Z,39.98
2019-05-13T17:39:34.853Z,39.82
2019-05-13T17:42:03.482Z,40.18
2019-05-13T17:44:32.223Z,39.75
2019-05-13T17:47:01.655Z,40.28
2019-05-13T17:49:31.837Z,40.69
2019-05-13T17:52:02.483Z,40.95
2019-05-13T17:54:31.836Z,40.05
2019-05-13T17:57:01.893Z,41.16
2019-05-13T17:59:31.465Z,41.85
2019-05-13T18:02:02.561Z,41.59
2019-05-13T18:04:31.423Z,41.08
2019-05-13T18:07:01.739Z,41.39
2019-05-13T18:09:31.885Z,42.31
2019-05-13T18:12:02.379Z,42.82
2019-05-13T18:14:31.157Z,42.44
2019-05-13T18:17:02.158Z,41.79
2019-05-13T18:19:31.673Z,41.83
2019-05-13T18:22:02.208Z,41.19
2019-05-13T18:24:32.047Z,41.73
2019-05-13T18:27:01.469Z,41.28
2019-05-13T18:29:31.573Z,41.95
2019-05-13T18:32:02.017Z,41.83
2019-05-13T18:34:32.215Z,42.19
2019-05-13T18:37:02.373Z,42.94
2019-05-13T18:39:32.276Z,42.87
2019-05-13T18:42:01.211Z,43.25
2019-05-13T18:44:31.719Z,43.57
2019-05-13T18:47:01.468Z,43.63
2019-05-13T18:49:31.763Z,43.28
2019-05-13T18:52:00.971Z,43.64
2019-05-13T18:54:31.563Z,43.32
2019-05-13T18:57:01.669Z,43.81
2019-05-13T18:59:32.246Z,44.20
2019-05-13T19:02:01.672Z,44.15
2019-05-13T19:04:31.261Z,44.23
2019-05-13T19:07:02.397Z,44.35
2019-05-13T19:09:31.139Z,44.44
2019-05-13T19:12:01.413Z,44.79
2019-05-13T19:14:31.762Z,44.67
2019-05-13T19:17:00.586Z,45.04
2019-05-13T19:19:31.502Z,44.83
2019-05-13T19:22:01.934Z,44.91
2019-05-13T19:24:31.252Z,45.24
2019-05-13T19:27:01.669Z,45.42
2019-05-13T19:29:31.859Z,45.42
2019-05-13T19:32:01.773Z,45.50
2019-05-13T19:34:32.284Z,45.66
2019-05-13T19:37:02.369Z,45.49
2019-05-13T19:39:31.461Z,46.00
2019-05-13T19:42:00.101Z,46.35
2019-05-13T19:44:28.742Z,45.66
2019-05-13T19:46:57.391Z,45.80
2019-05-13T19:49:32.589Z,45.79
2019-05-13T19:51:56.669Z,45.74
2019-05-13T19:54:25.354Z,45.92
2019-05-13T19:56:54.041Z,46.34
2019-05-13T19:59:22.714Z,46.36
2019-05-13T20:01:51.800Z,46.98
2019-05-13T20:04:21.842Z,47.00
2019-05-13T20:06:51.935Z,46.64
2019-05-13T20:09:21.558Z,47.52
2019-05-13T20:11:55.067Z,47.46
2019-05-13T20:14:22.428Z,47.46
2019-05-13T20:16:52.435Z,47.26
2019-05-13T20:19:22.324Z,47.89
2019-05-13T20:21:51.822Z,47.45
2019-05-13T20:24:21.938Z,47.07
2019-05-13T20:26:52.160Z,47.19
2019-05-13T20:29:21.018Z,46.90
2019-05-13T20:31:51.712Z,47.31
2019-05-13T20:34:22.051Z,47.25
2019-05-13T20:36:51.598Z,47.66
2019-05-13T20:39:22.429Z,48.08
2019-05-13T20:41:55.564Z,47.91
2019-05-13T20:44:22.131Z,47.96
2019-05-13T20:46:51.844Z,48.30
2019-05-13T20:49:21.831Z,49.03
2019-05-13T20:51:51.671Z,48.82
2019-05-13T20:54:22.056Z,49.29
2019-05-13T20:56:51.790Z,49.31
2019-05-13T20:59:21.587Z,50.12
2019-05-13T21:01:51.131Z,50.72
2019-05-13T21:04:21.544Z,50.09
2019-05-13T21:06:51.564Z,50.59
2019-05-13T21:09:20.581Z,50.44
2019-05-13T21:11:51.332Z,50.24
2019-05-13T21:14:21.602Z,50.59
2019-05-13T21:16:49.691Z,50.58
2019-05-13T21:19:18.186Z,51.33
2019-05-13T21:21:46.769Z,51.45
2019-05-13T21:24:15.270Z,51.46
2019-05-13T21:26:43.831Z,52.51
2019-05-13T21:29:12.564Z,52.88
2019-05-13T21:31:41.562Z,52.87
2019-05-13T21:34:11.910Z,52.29
2019-05-13T21:36:41.220Z,52.63
2019-05-13T21:39:12.234Z,53.39
2019-05-13T21:41:41.285Z,53.88
2019-05-13T21:44:11.984Z,54.24
2019-05-13T21:46:41.111Z,53.78
2019-05-13T21:49:11.863Z,54.10
2019-05-13T21:51:41.748Z,54.15
2019-05-13T21:54:11.929Z,53.93
2019-05-13T21:56:42.656Z,54.19
2019-05-13T21:59:11.000Z,54.61
2019-05-13T22:01:42.064Z,54.05
2019-05-13T22:04:12.147Z,54.23
2019-05-13T22:06:40.364Z,55.18
2019-05-13T22:09:11.756Z,54.26
2019-05-13T22:11:41.961Z,54.63
2019-05-13T22:14:11.432Z,55.70
2019-05-13T22:16:41.309Z,55.18
2019-05-13T22:19:12.308Z,55.98
2019-05-13T22:21:42.364Z,56.09
2019-05-13T22:24:11.704Z,56.89
2019-05-13T22:26:42.025Z,56.67
2019-05-13T22:29:11.089Z,56.63
2019-05-13T22:31:41.828Z,56.83
2019-05-13T22:34:12.100Z,57.19
2019-05-13T22:36:40.275Z,58.14
2019-05-13T22:39:11.340Z,58.51
2019-05-13T22:41:39.118Z,59.19
2019-05-13T22:44:07.674Z,59.66
2019-05-13T22:46:36.176Z,59.36
2019-05-13T22:49:04.676Z,59.66
2019-05-13T22:51:33.248Z,60.67
2019-05-13T22:54:02.000Z,60.21
2019-05-13T22:56:31.926Z,60.24
2019-05-13T22:59:02.080Z,60.44
2019-05-13T23:01:32.375Z,60.25
2019-05-13T23:04:02.158Z,61.18
2019-05-13T23:06:32.171Z,61.26
2019-05-13T23:09:01.749Z,61.37
2019-05-13T23:11:31.058Z,61.73
2019-05-13T23:14:09.690Z,61.55
2019-05-13T23:16:31.614Z,61.82
2019-05-13T23:19:00.496Z,62.20
2019-05-13T23:21:31.143Z,62.39
2019-05-13T23:24:00.127Z,62.20
2019-05-13T23:26:31.526Z,62.65
2019-05-13T23:29:01.391Z,62.72
2019-05-13T23:31:30.468Z,62.91
2019-05-13T23:34:01.273Z,62.62
2019-05-13T23:36:31.492Z,63.43
2019-05-13T23:39:01.065Z,63.38
2019-05-13T23:41:30.045Z,63.42
2019-05-13T23:43:58.692Z,63.59
2019-05-13T23:46:27.183Z,63.69
2019-05-13T23:48:55.827Z,63.47
2019-05-13T23:51:24.469Z,63.76
2019-05-13T23:53:53.163Z,64.40
2019-05-13T23:56:21.935Z,64.81
2019-05-13T23:58:51.939Z,64.99
